Time;durP1;ratioP1;P1;durP2;ratioP2;P2;SDS_P1;SDS_P2;PMS_P1;PMS_P2;Temp;Humidity;BMP_temperature;BMP_pressure;BME280_temperature;BME280_humidity;BME280_pressure;Samples;Min_cycle;Max_cycle;Signal;HPM_P1;HPM_P2
2022/01/19 00:00:53;;;;;;;97.68;55.17;;;;;;;;;;5071418;28;20464;-74
2022/01/19 00:03:19;;;;;;;88.60;49.40;;;;;;;;;;5074369;28;20505;-74
2022/01/19 00:05:45;;;;;;;81.95;47.72;;;;;;;;;;5071730;28;20036;-74
2022/01/19 00:08:16;;;;;;;79.80;43.40;;;;;;;;;;5075194;28;20064;-74
2022/01/19 00:10:43;;;;;;;68.85;38.47;;;;;;;;;;5071812;28;20035;-74
2022/01/19 00:13:09;;;;;;;63.75;36.40;;;;;;;;;;5080191;28;20032;-74
2022/01/19 00:15:35;;;;;;;67.18;36.20;;;;;;;;;;5091888;28;20119;-74
2022/01/19 00:18:01;;;;;;;65.65;35.70;;;;;;;;;;5091027;28;20488;-74
2022/01/19 00:20:29;;;;;;;66.97;35.33;;;;;;;;;;5090659;28;20028;-74
2022/01/19 00:22:55;;;;;;;70.05;37.65;;;;;;;;;;5086398;28;20036;-74
2022/01/19 00:25:21;;;;;;;68.78;37.33;;;;;;;;;;5079902;28;20032;-74
2022/01/19 00:27:47;;;;;;;65.55;35.03;;;;;;;;;;5077442;28;20364;-74
2022/01/19 00:30:14;;;;;;;62.72;33.47;;;;;;;;;;5085097;28;20428;-74
2022/01/19 00:32:40;;;;;;;68.32;33.85;;;;;;;;;;5090828;28;20431;-74
2022/01/19 00:35:06;;;;;;;62.92;34.83;;;;;;;;;;5087126;28;20077;-74
2022/01/19 00:37:33;;;;;;;54.10;29.13;;;;;;;;;;5090909;28;20039;-74
2022/01/19 00:39:59;;;;;;;56.83;30.83;;;;;;;;;;5081197;28;20057;-74
2022/01/19 00:42:25;;;;;;;57.47;28.30;;;;;;;;;;5074449;28;20677;-74
2022/01/19 00:44:51;;;;;;;63.10;32.50;;;;;;;;;;5076898;28;20126;-74
2022/01/19 00:47:17;;;;;;;69.38;35.35;;;;;;;;;;5090638;28;20043;-74
2022/01/19 00:49:43;;;;;;;57.13;30.85;;;;;;;;;;5078211;28;20035;-74
2022/01/19 00:52:10;;;;;;;54.35;30.33;;;;;;;;;;5089529;28;20086;-74
2022/01/19 00:54:36;;;;;;;56.00;30.98;;;;;;;;;;5079515;28;20030;-74
2022/01/19 00:57:03;;;;;;;62.53;32.13;;;;;;;;;;5084260;28;20035;-74
2022/01/19 00:59:29;;;;;;;64.50;32.78;;;;;;;;;;5069628;28;20052;-74
2022/01/19 01:01:55;;;;;;;58.33;30.38;;;;;;;;;;5081350;28;20060;-74
2022/01/19 01:04:21;;;;;;;62.97;31.48;;;;;;;;;;5074165;28;20034;-74
2022/01/19 01:06:47;;;;;;;57.60;28.52;;;;;;;;;;5090579;28;20127;-74
2022/01/19 01:09:13;;;;;;;67.18;32.25;;;;;;;;;;5078697;28;20024;-75
2022/01/19 01:11:47;;;;;;;57.08;29.58;;;;;;;;;;5090522;28;20055;-74
2022/01/19 01:16:59;;;;;;;54.47;31.35;;;;;;;;;;5088154;28;20127;-74
2022/01/19 01:19:25;;;;;;;55.88;31.40;;;;;;;;;;5069529;28;20089;-74
2022/01/19 01:21:51;;;;;;;55.90;29.80;;;;;;;;;;5081677;28;20036;-74
2022/01/19 01:24:17;;;;;;;58.13;29.55;;;;;;;;;;5089550;28;20494;-74
2022/01/19 01:26:43;;;;;;;55.20;31.27;;;;;;;;;;5080920;28;20075;-73
2022/01/19 01:29:10;;;;;;;58.10;30.30;;;;;;;;;;5089602;28;20032;-74
2022/01/19 01:31:36;;;;;;;74.93;36.83;;;;;;;;;;5089169;28;20028;-74
2022/01/19 01:34:02;;;;;;;60.20;32.08;;;;;;;;;;5089651;28;20047;-74
2022/01/19 01:36:28;;;;;;;64.30;33.92;;;;;;;;;;5089294;28;20756;-74
2022/01/19 01:38:54;;;;;;;62.63;32.53;;;;;;;;;;5090162;28;20040;-74
2022/01/19 01:41:20;;;;;;;62.53;34.33;;;;;;;;;;5089493;28;20027;-74
2022/01/19 01:43:46;;;;;;;62.45;33.15;;;;;;;;;;5078482;28;20064;-73
2022/01/19 01:46:30;;;;;;;64.50;34.10;;;;;;;;;;5081431;28;20059;-74
2022/01/19 01:48:56;;;;;;;71.95;36.47;;;;;;;;;;5074145;28;20045;-74
2022/01/19 01:54:07;;;;;;;76.00;41.72;;;;;;;;;;5072707;28;20642;-74
2022/01/19 01:56:33;;;;;;;76.65;39.78;;;;;;;;;;5089750;28;20030;-73
2022/01/19 01:58:59;;;;;;;69.30;36.65;;;;;;;;;;5075286;28;20056;-74
2022/01/19 02:01:25;;;;;;;63.88;34.58;;;;;;;;;;5069875;28;20527;-74
2022/01/19 02:03:51;;;;;;;67.93;36.47;;;;;;;;;;5085106;28;20036;-74
2022/01/19 02:08:53;;;;;;;69.82;35.53;;;;;;;;;;5082358;28;20127;-74
2022/01/19 02:21:36;;;;;;;76.63;40.47;;;;;;;;;;5085889;28;20079;-74
2022/01/19 02:22:19;;;;;;;62.65;32.58;;;;;;;;;;5069604;28;20051;-74
2022/01/19 02:24:46;;;;;;;72.60;39.28;;;;;;;;;;5070706;28;20043;-74
2022/01/19 02:41:05;;;;;;;71.68;37.20;;;;;;;;;;5082484;28;20044;-74
2022/01/19 02:43:31;;;;;;;70.07;39.53;;;;;;;;;;5068780;28;20375;-74
2022/01/19 02:51:26;;;;;;;109.63;49.22;;;;;;;;;;5089117;28;20084;-74
2022/01/19 02:53:52;;;;;;;91.38;43.10;;;;;;;;;;5088903;28;20040;-74
2022/01/19 02:56:25;;;;;;;86.00;39.88;;;;;;;;;;5074031;28;20028;-74
2022/01/19 02:58:57;;;;;;;93.93;43.63;;;;;;;;;;5079635;28;20049;-74
2022/01/19 03:09:27;;;;;;;108.95;50.65;;;;;;;;;;5073574;28;20063;-74
2022/01/19 03:11:54;;;;;;;95.25;45.45;;;;;;;;;;5068085;28;20676;-75
2022/01/19 03:14:20;;;;;;;100.90;50.55;;;;;;;;;;5077869;28;20038;-74
2022/01/19 03:16:46;;;;;;;93.57;44.72;;;;;;;;;;5074985;28;20028;-74
2022/01/19 03:19:13;;;;;;;90.05;46.00;;;;;;;;;;5067786;28;20047;-74
2022/01/19 03:21:39;;;;;;;85.15;44.72;;;;;;;;;;5068789;28;20036;-75
2022/01/19 03:24:05;;;;;;;82.47;43.53;;;;;;;;;;5081359;28;20035;-74
2022/01/19 03:26:32;;;;;;;86.72;42.75;;;;;;;;;;5068503;28;20426;-74
2022/01/19 03:28:58;;;;;;;81.32;44.25;;;;;;;;;;5088226;28;20078;-74
2022/01/19 03:31:24;;;;;;;86.07;47.22;;;;;;;;;;5090440;28;20067;-74
2022/01/19 03:33:50;;;;;;;81.00;38.88;;;;;;;;;;5091578;28;20120;-74
2022/01/19 03:36:17;;;;;;;79.53;42.10;;;;;;;;;;5087066;28;20470;-74
2022/01/19 03:38:43;;;;;;;74.38;37.60;;;;;;;;;;5084462;28;20021;-74
2022/01/19 03:41:09;;;;;;;68.18;36.10;;;;;;;;;;5088414;28;20028;-74
2022/01/19 03:43:36;;;;;;;73.20;36.17;;;;;;;;;;5092099;28;20740;-74
2022/01/19 03:46:05;;;;;;;74.50;36.80;;;;;;;;;;5074552;28;20032;-74
2022/01/19 03:51:00;;;;;;;67.25;36.42;;;;;;;;;;5091698;28;20438;-74
2022/01/19 03:53:26;;;;;;;118.85;60.75;;;;;;;;;;5091464;28;20517;-74
2022/01/19 03:55:52;;;;;;;82.20;45.13;;;;;;;;;;5091884;28;20059;-74
2022/01/19 03:58:18;;;;;;;85.75;43.03;;;;;;;;;;5091099;28;20063;-74
2022/01/19 04:00:45;;;;;;;99.18;57.22;;;;;;;;;;5091673;28;20794;-74
2022/01/19 04:03:15;;;;;;;97.20;54.70;;;;;;;;;;5089150;28;20067;-75
2022/01/19 04:05:57;;;;;;;84.78;48.88;;;;;;;;;;5079711;28;20056;-74
2022/01/19 04:08:23;;;;;;;66.72;38.67;;;;;;;;;;5091360;28;20107;-74
2022/01/19 04:10:49;;;;;;;62.83;34.47;;;;;;;;;;5091927;28;20485;-74
2022/01/19 04:13:54;;;;;;;78.10;45.40;;;;;;;;;;5090980;28;20032;-75
2022/01/19 04:16:04;;;;;;;61.03;33.28;;;;;;;;;;5070819;28;20511;-74
2022/01/19 04:18:30;;;;;;;56.85;30.42;;;;;;;;;;5082905;28;20080;-74
2022/01/19 04:20:56;;;;;;;60.63;31.73;;;;;;;;;;5085225;28;20052;-74
2022/01/19 04:23:22;;;;;;;54.40;29.45;;;;;;;;;;5072738;28;20040;-74
2022/01/19 04:25:48;;;;;;;49.03;28.65;;;;;;;;;;5071767;28;20036;-74
2022/01/19 04:28:15;;;;;;;71.53;44.05;;;;;;;;;;5078965;28;20421;-74
2022/01/19 04:30:41;;;;;;;68.07;41.72;;;;;;;;;;5077637;28;20398;-73
2022/01/19 04:33:18;;;;;;;55.30;28.15;;;;;;;;;;5070436;28;20040;-74
2022/01/19 04:35:50;;;;;;;49.45;27.92;;;;;;;;;;5072189;28;20020;-74
2022/01/19 05:03:36;;;;;;;44.28;25.45;;;;;;;;;;5070459;28;20155;-74
2022/01/19 05:06:13;;;;;;;44.65;25.98;;;;;;;;;;5070430;28;20070;-74
2022/01/19 05:09:05;;;;;;;46.47;26.33;;;;;;;;;;5070102;28;20068;-74
2022/01/19 05:14:16;;;;;;;63.65;39.60;;;;;;;;;;5051136;28;20044;-74
2022/01/19 05:16:42;;;;;;;59.63;35.67;;;;;;;;;;5069994;28;20039;-74
2022/01/19 05:19:09;;;;;;;42.40;24.73;;;;;;;;;;5069622;28;20028;-73
2022/01/19 05:21:35;;;;;;;38.60;22.75;;;;;;;;;;5051255;28;20135;-74
2022/01/19 05:24:04;;;;;;;34.42;20.92;;;;;;;;;;5056210;28;20052;-74
2022/01/19 05:26:31;;;;;;;37.58;20.63;;;;;;;;;;5054370;28;20384;-74
2022/01/19 05:28:57;;;;;;;36.33;22.63;;;;;;;;;;5053460;28;20040;-74
2022/01/19 05:31:23;;;;;;;52.30;28.75;;;;;;;;;;5052719;28;20032;-74
2022/01/19 05:33:49;;;;;;;47.28;28.60;;;;;;;;;;5058928;28;20043;-74
2022/01/19 05:36:15;;;;;;;48.38;29.23;;;;;;;;;;5060050;28;20103;-75
2022/01/19 05:38:41;;;;;;;53.33;32.03;;;;;;;;;;5068962;28;20620;-74
2022/01/19 05:41:07;;;;;;;46.78;26.00;;;;;;;;;;5069542;28;20028;-74
2022/01/19 05:43:33;;;;;;;47.13;28.23;;;;;;;;;;5069228;28;20094;-74
2022/01/19 05:45:59;;;;;;;45.00;27.65;;;;;;;;;;5068815;28;20032;-74
2022/01/19 05:48:25;;;;;;;47.63;27.88;;;;;;;;;;5059977;28;20043;-74
2022/01/19 05:50:51;;;;;;;41.88;24.55;;;;;;;;;;5060188;28;20043;-74
2022/01/19 05:53:17;;;;;;;46.13;28.08;;;;;;;;;;5068799;28;20475;-74
2022/01/19 05:55:44;;;;;;;42.20;25.85;;;;;;;;;;5069503;28;20028;-74
2022/01/19 05:58:10;;;;;;;42.97;26.42;;;;;;;;;;5068561;28;20080;-74
2022/01/19 06:00:36;;;;;;;47.22;30.23;;;;;;;;;;5075761;28;20041;-74
2022/01/19 06:03:03;;;;;;;47.70;26.50;;;;;;;;;;5069084;28;20028;-74
2022/01/19 06:05:30;;;;;;;57.90;33.78;;;;;;;;;;5071630;28;20035;-74
2022/01/19 06:08:11;;;;;;;63.10;37.58;;;;;;;;;;5069462;28;20031;-73
2022/01/19 06:10:44;;;;;;;69.93;40.50;;;;;;;;;;5086965;28;20586;-74
2022/01/19 06:13:12;;;;;;;70.88;40.08;;;;;;;;;;5080736;28;20724;-73
2022/01/19 06:15:38;;;;;;;67.30;38.65;;;;;;;;;;5081004;28;20028;-74
2022/01/19 06:18:04;;;;;;;61.05;34.78;;;;;;;;;;5088658;28;20478;-74
2022/01/19 06:20:30;;;;;;;53.35;28.17;;;;;;;;;;5083846;28;20032;-74
2022/01/19 06:22:56;;;;;;;54.75;28.55;;;;;;;;;;5083079;28;20029;-74
2022/01/19 06:25:22;;;;;;;51.13;27.83;;;;;;;;;;5088942;28;20044;-74
2022/01/19 06:27:48;;;;;;;72.70;38.40;;;;;;;;;;5086919;28;20055;-74
2022/01/19 06:30:14;;;;;;;74.90;40.85;;;;;;;;;;5087758;28;20036;-75
2022/01/19 06:32:41;;;;;;;57.08;32.28;;;;;;;;;;5087475;28;20111;-76
2022/01/19 06:35:07;;;;;;;59.97;35.70;;;;;;;;;;5087905;28;20040;-75
2022/01/19 06:37:33;;;;;;;45.10;26.08;;;;;;;;;;5087884;28;20020;-75
2022/01/19 06:40:00;;;;;;;45.95;24.95;;;;;;;;;;5087478;28;20069;-75
2022/01/19 06:42:26;;;;;;;47.33;23.98;;;;;;;;;;5088460;28;20027;-75
2022/01/19 06:44:52;;;;;;;41.03;24.50;;;;;;;;;;5082186;28;20050;-75
2022/01/19 06:47:18;;;;;;;46.17;24.10;;;;;;;;;;5078161;28;20074;-75
2022/01/19 06:49:44;;;;;;;41.08;22.77;;;;;;;;;;5088586;28;20039;-75
2022/01/19 06:52:10;;;;;;;43.63;25.20;;;;;;;;;;5078681;28;20044;-75
2022/01/19 06:54:36;;;;;;;44.03;23.38;;;;;;;;;;5084341;28;20425;-75
2022/01/19 06:57:03;;;;;;;41.33;22.83;;;;;;;;;;5088141;28;20028;-75
2022/01/19 06:59:30;;;;;;;42.47;23.92;;;;;;;;;;5087963;28;20040;-75
2022/01/19 07:01:56;;;;;;;44.83;25.73;;;;;;;;;;5089233;28;20103;-75
2022/01/19 07:04:22;;;;;;;49.30;24.15;;;;;;;;;;5073015;28;20020;-75
2022/01/19 07:06:48;;;;;;;43.13;25.00;;;;;;;;;;5090248;28;20039;-75
2022/01/19 07:09:14;;;;;;;47.85;25.40;;;;;;;;;;5092075;28;20020;-75
2022/01/19 07:11:40;;;;;;;39.33;22.48;;;;;;;;;;5088429;28;20032;-75
2022/01/19 07:14:07;;;;;;;50.13;28.30;;;;;;;;;;5092062;28;20047;-75
2022/01/19 07:16:33;;;;;;;51.67;26.75;;;;;;;;;;5089438;28;20028;-75
2022/01/19 07:18:59;;;;;;;52.20;28.38;;;;;;;;;;5091084;28;20028;-75
2022/01/19 07:21:25;;;;;;;46.80;26.67;;;;;;;;;;5092896;28;20095;-75
2022/01/19 07:23:51;;;;;;;56.20;29.98;;;;;;;;;;5085614;28;20398;-75
2022/01/19 07:26:17;;;;;;;50.95;27.92;;;;;;;;;;5080178;28;20040;-75
2022/01/19 07:28:43;;;;;;;49.17;26.45;;;;;;;;;;5091800;28;20032;-75
2022/01/19 07:31:08;;;;;;;59.47;29.27;;;;;;;;;;5080445;28;20032;-75
2022/01/19 07:33:35;;;;;;;56.10;27.05;;;;;;;;;;5087658;28;20067;-75
2022/01/19 07:36:01;;;;;;;49.85;26.10;;;;;;;;;;5083393;28;20032;-75
2022/01/19 07:38:27;;;;;;;51.28;28.85;;;;;;;;;;5091584;28;20024;-75
2022/01/19 07:40:53;;;;;;;58.15;33.50;;;;;;;;;;5081890;28;20028;-75
2022/01/19 07:43:19;;;;;;;58.78;33.47;;;;;;;;;;5088521;28;20110;-75
2022/01/19 07:45:45;;;;;;;62.13;33.60;;;;;;;;;;5088941;28;20818;-75
2022/01/19 07:48:12;;;;;;;59.33;32.15;;;;;;;;;;5074994;28;20035;-75
2022/01/19 07:50:38;;;;;;;58.80;32.40;;;;;;;;;;5092047;28;20107;-75
2022/01/19 07:53:04;;;;;;;55.53;29.15;;;;;;;;;;5074694;28;20056;-75
2022/01/19 07:55:30;;;;;;;51.08;28.75;;;;;;;;;;5087885;28;20111;-75
2022/01/19 07:57:56;;;;;;;47.90;26.60;;;;;;;;;;5087907;28;20757;-75
2022/01/19 08:00:22;;;;;;;49.05;26.65;;;;;;;;;;5090374;28;20119;-75
2022/01/19 08:02:51;;;;;;;46.80;25.38;;;;;;;;;;5081360;28;20032;-75
2022/01/19 08:05:18;;;;;;;43.83;24.73;;;;;;;;;;5079828;28;20067;-75
2022/01/19 08:07:44;;;;;;;47.88;24.02;;;;;;;;;;5086566;28;20060;-75
2022/01/19 08:10:11;;;;;;;44.58;23.30;;;;;;;;;;5084756;28;20036;-75
2022/01/19 08:12:37;;;;;;;45.78;25.48;;;;;;;;;;5090906;28;20035;-75
2022/01/19 08:15:04;;;;;;;44.67;25.35;;;;;;;;;;5082575;28;20035;-75
2022/01/19 08:17:31;;;;;;;42.15;21.90;;;;;;;;;;5090823;28;20111;-75
2022/01/19 08:19:58;;;;;;;41.35;24.25;;;;;;;;;;5091575;28;20115;-75
2022/01/19 08:22:24;;;;;;;46.90;21.40;;;;;;;;;;5086710;28;20031;-75
2022/01/19 08:24:50;;;;;;;43.67;25.30;;;;;;;;;;5088373;28;20041;-75
2022/01/19 08:27:17;;;;;;;48.75;24.48;;;;;;;;;;5080111;28;20383;-75
2022/01/19 08:29:44;;;;;;;41.30;22.60;;;;;;;;;;5091025;28;20097;-75
2022/01/19 08:32:10;;;;;;;41.88;23.77;;;;;;;;;;5089425;28;20028;-75
2022/01/19 08:34:36;;;;;;;45.30;25.73;;;;;;;;;;5089596;28;20035;-75
2022/01/19 08:37:03;;;;;;;50.38;28.35;;;;;;;;;;5089364;28;20016;-75
2022/01/19 08:39:29;;;;;;;47.97;26.92;;;;;;;;;;5090924;28;20107;-75
2022/01/19 08:41:55;;;;;;;52.25;25.17;;;;;;;;;;5085777;28;20171;-75
2022/01/19 08:44:21;;;;;;;48.10;24.85;;;;;;;;;;5087930;28;20054;-75
2022/01/19 08:46:47;;;;;;;56.38;29.45;;;;;;;;;;5089185;28;20043;-75
2022/01/19 08:49:14;;;;;;;53.78;30.42;;;;;;;;;;5086936;28;20065;-75
2022/01/19 08:51:40;;;;;;;58.25;30.92;;;;;;;;;;5090871;28;20425;-75
2022/01/19 08:54:06;;;;;;;53.17;26.50;;;;;;;;;;5078710;28;20036;-75
2022/01/19 08:56:32;;;;;;;55.80;30.50;;;;;;;;;;5085539;28;20055;-75
2022/01/19 08:58:59;;;;;;;56.58;31.40;;;;;;;;;;5090140;28;20486;-75
2022/01/19 09:01:25;;;;;;;55.90;30.55;;;;;;;;;;5089204;28;20554;-75
2022/01/19 09:03:51;;;;;;;70.55;33.83;;;;;;;;;;5075524;28;20123;-75
2022/01/19 09:06:18;;;;;;;59.40;32.38;;;;;;;;;;5077496;28;20138;-75
2022/01/19 09:08:44;;;;;;;67.53;35.53;;;;;;;;;;5090065;28;20043;-75
2022/01/19 09:11:11;;;;;;;64.40;34.25;;;;;;;;;;5085760;28;20419;-75
2022/01/19 09:13:38;;;;;;;79.20;41.65;;;;;;;;;;5087915;28;20488;-75
2022/01/19 09:16:04;;;;;;;60.38;34.75;;;;;;;;;;5088946;28;20024;-75
2022/01/19 09:18:30;;;;;;;61.85;34.88;;;;;;;;;;5088605;28;20028;-75
2022/01/19 09:20:56;;;;;;;61.67;36.28;;;;;;;;;;5081099;28;20035;-75
2022/01/19 09:23:22;;;;;;;63.35;37.00;;;;;;;;;;5079124;28;20574;-75
2022/01/19 09:25:48;;;;;;;64.57;36.78;;;;;;;;;;5077965;28;20086;-75
2022/01/19 09:28:14;;;;;;;62.47;34.78;;;;;;;;;;5086029;28;20483;-75
2022/01/19 09:30:41;;;;;;;55.65;33.42;;;;;;;;;;5089387;28;20027;-75
2022/01/19 09:33:18;;;;;;;50.47;28.25;;;;;;;;;;5077199;28;20035;-75
2022/01/19 09:38:24;;;;;;;51.70;30.52;;;;;;;;;;5089233;28;20050;-75
2022/01/19 09:40:50;;;;;;;51.78;28.83;;;;;;;;;;5089867;28;20437;-75
2022/01/19 09:43:18;;;;;;;57.03;34.15;;;;;;;;;;5089152;28;20040;-75
2022/01/19 09:45:44;;;;;;;55.75;32.30;;;;;;;;;;5090112;28;20030;-75
2022/01/19 09:48:10;;;;;;;50.15;31.73;;;;;;;;;;5089240;28;20044;-75
2022/01/19 09:50:36;;;;;;;49.78;28.77;;;;;;;;;;5078583;28;20036;-75
2022/01/19 09:53:04;;;;;;;40.30;24.77;;;;;;;;;;5084604;28;20036;-75
2022/01/19 09:55:30;;;;;;;37.35;24.27;;;;;;;;;;5084798;28;20043;-75
2022/01/19 09:57:56;;;;;;;40.53;21.23;;;;;;;;;;5087747;28;20115;-75
2022/01/19 10:00:22;;;;;;;41.90;22.70;;;;;;;;;;5089236;28;20123;-75
2022/01/19 10:03:07;;;;;;;45.30;24.02;;;;;;;;;;5086374;28;20127;-75
2022/01/19 10:05:34;;;;;;;36.47;22.35;;;;;;;;;;5088632;28;20039;-76
2022/01/19 10:08:00;;;;;;;36.33;23.35;;;;;;;;;;5088354;28;20413;-75
2022/01/19 10:10:26;;;;;;;42.67;22.65;;;;;;;;;;5088405;28;20036;-75
2022/01/19 10:18:29;;;;;;;36.63;21.80;;;;;;;;;;5069597;28;20043;-75
2022/01/19 10:21:04;;;;;;;41.22;22.55;;;;;;;;;;5086581;28;20085;-75
2022/01/19 10:23:33;;;;;;;47.30;25.65;;;;;;;;;;5088693;28;20058;-75
2022/01/19 10:25:59;;;;;;;50.75;29.67;;;;;;;;;;5084798;28;20033;-75
2022/01/19 10:28:25;;;;;;;46.53;27.58;;;;;;;;;;5081822;28;20521;-75
2022/01/19 10:30:52;;;;;;;50.13;29.63;;;;;;;;;;5088631;28;20043;-75
2022/01/19 10:33:19;;;;;;;43.58;24.00;;;;;;;;;;5089032;28;20036;-75
2022/01/19 10:35:47;;;;;;;43.50;23.50;;;;;;;;;;5082410;28;20028;-73
2022/01/19 10:38:29;;;;;;;40.45;22.55;;;;;;;;;;5087655;28;20032;-75
2022/01/19 10:40:55;;;;;;;;;;;;;;;;;;5086585;28;20115;-75
2022/01/19 10:43:40;;;;;;;39.90;23.00;;;;;;;;;;5081093;28;20323;-75
2022/01/19 10:46:22;;;;;;;32.95;23.92;;;;;;;;;;5092827;28;20406;-75
2022/01/19 10:48:48;;;;;;;37.10;23.65;;;;;;;;;;5085640;28;20046;-73
2022/01/19 10:51:20;;;;;;;39.17;21.63;;;;;;;;;;5092726;28;20036;-73
2022/01/19 10:53:48;;;;;;;42.22;24.70;;;;;;;;;;5092182;28;20870;-73
2022/01/19 10:56:24;;;;;;;40.70;19.73;;;;;;;;;;5077286;28;20036;-73
2022/01/19 10:59:00;;;;;;;44.08;23.05;;;;;;;;;;5090224;28;20052;-73
2022/01/19 11:01:37;;;;;;;43.53;22.13;;;;;;;;;;5093137;28;20031;-73
2022/01/19 11:04:21;;;;;;;40.15;17.25;;;;;;;;;;5092455;28;20040;-73
2022/01/19 11:06:48;;;;;;;34.53;17.45;;;;;;;;;;5082691;28;20061;-73
2022/01/19 11:09:15;;;;;;;32.05;17.33;;;;;;;;;;5091911;28;20032;-73
2022/01/19 11:11:43;;;;;;;37.13;19.23;;;;;;;;;;5077715;28;20040;-73
2022/01/19 11:14:10;;;;;;;39.67;21.20;;;;;;;;;;5092223;28;20031;-73
2022/01/19 11:16:36;;;;;;;40.28;21.63;;;;;;;;;;5090750;28;20059;-73
2022/01/19 11:19:02;;;;;;;41.72;22.55;;;;;;;;;;5083291;28;20064;-73
2022/01/19 11:21:30;;;;;;;37.13;21.50;;;;;;;;;;5083697;28;20038;-73
2022/01/19 11:24:09;;;;;;;38.85;21.17;;;;;;;;;;5091671;28;20032;-73
2022/01/19 11:26:36;;;;;;;35.47;19.40;;;;;;;;;;5092877;28;20494;-73
2022/01/19 11:29:19;;;;;;;34.70;19.50;;;;;;;;;;5091170;28;20558;-73
2022/01/19 11:31:46;;;;;;;31.92;19.98;;;;;;;;;;5091983;28;20063;-73
2022/01/19 11:34:12;;;;;;;34.90;21.55;;;;;;;;;;5091138;28;20051;-73
2022/01/19 11:36:42;;;;;;;33.45;22.13;;;;;;;;;;5092176;28;20039;-73
2022/01/19 11:39:11;;;;;;;40.15;22.45;;;;;;;;;;5082219;28;20532;-73
2022/01/19 11:41:40;;;;;;;40.88;24.27;;;;;;;;;;5078992;28;20393;-73
2022/01/19 11:44:08;;;;;;;38.97;24.58;;;;;;;;;;5081236;28;20043;-73
2022/01/19 11:46:40;;;;;;;45.13;26.95;;;;;;;;;;5084674;28;20466;-73
2022/01/19 11:49:07;;;;;;;36.88;22.15;;;;;;;;;;5081941;28;20031;-73
2022/01/19 11:51:38;;;;;;;39.10;21.90;;;;;;;;;;5091152;28;20036;-73
2022/01/19 11:54:07;;;;;;;36.17;22.48;;;;;;;;;;5083187;28;20036;-73
2022/01/19 11:56:53;;;;;;;29.98;17.00;;;;;;;;;;5091480;28;20037;-73
2022/01/19 11:59:19;;;;;;;21.15;12.45;;;;;;;;;;5089991;28;20052;-72
2022/01/19 12:01:45;;;;;;;26.20;11.55;;;;;;;;;;5087172;28;20036;-73
2022/01/19 12:04:22;;;;;;;15.57;10.35;;;;;;;;;;5088907;28;20039;-73
2022/01/19 12:06:48;;;;;;;19.92;9.52;;;;;;;;;;5083962;28;20178;-73
2022/01/19 12:09:15;;;;;;;13.43;8.40;;;;;;;;;;5089258;28;20688;-73
2022/01/19 12:11:48;;;;;;;25.13;14.40;;;;;;;;;;5089946;28;20047;-73
2022/01/19 12:14:18;;;;;;;;;;;;;;;;;;5091688;28;20028;-73
2022/01/19 12:16:57;;;;;;;17.98;9.80;;;;;;;;;;5085400;28;19923;-73
2022/01/19 12:19:27;;;;;;;24.83;9.35;;;;;;;;;;5085298;28;20037;-73
2022/01/19 12:21:55;;;;;;;20.20;8.50;;;;;;;;;;5090461;28;20585;-73
2022/01/19 12:24:30;;;;;;;20.65;9.32;;;;;;;;;;5091192;28;20378;-73
2022/01/19 12:27:04;;;;;;;24.88;10.48;;;;;;;;;;5090655;28;20051;-73
2022/01/19 12:29:36;;;;;;;20.98;10.13;;;;;;;;;;5078774;28;20042;-73
2022/01/19 12:32:18;;;;;;;19.20;9.00;;;;;;;;;;5078717;28;20028;-73
2022/01/19 12:34:51;;;;;;;18.00;8.43;;;;;;;;;;5083389;28;20058;-73
2022/01/19 12:37:32;;;;;;;13.68;7.47;;;;;;;;;;5089416;28;20028;-73
2022/01/19 12:40:00;;;;;;;20.67;10.30;;;;;;;;;;5073017;28;20127;-73
2022/01/19 12:42:32;;;;;;;18.70;10.55;;;;;;;;;;5086353;28;20114;-73
2022/01/19 12:44:59;;;;;;;22.17;11.80;;;;;;;;;;5089222;28;20028;-73
2022/01/19 12:47:27;;;;;;;21.15;9.68;;;;;;;;;;5089639;28;20059;-73
2022/01/19 12:49:54;;;;;;;17.75;9.32;;;;;;;;;;5091021;28;20043;-73
2022/01/19 12:52:22;;;;;;;15.77;9.20;;;;;;;;;;5086619;28;20043;-73
2022/01/19 12:54:48;;;;;;;16.80;9.15;;;;;;;;;;5078101;28;20413;-73
2022/01/19 12:57:17;;;;;;;17.27;10.15;;;;;;;;;;5082381;28;20520;-73
2022/01/19 12:59:44;;;;;;;13.48;8.65;;;;;;;;;;5090271;28;20044;-73
2022/01/19 13:02:13;;;;;;;19.83;8.80;;;;;;;;;;5089402;28;20088;-73
2022/01/19 13:04:40;;;;;;;20.25;9.50;;;;;;;;;;5082013;28;20055;-73
2022/01/19 13:07:16;;;;;;;18.80;8.75;;;;;;;;;;5090160;28;20394;-73
2022/01/19 13:10:07;;;;;;;18.48;9.40;;;;;;;;;;5089049;28;20028;-73
2022/01/19 13:12:42;;;;;;;20.48;11.30;;;;;;;;;;5078045;28;20032;-73
2022/01/19 13:15:08;;;;;;;29.40;13.63;;;;;;;;;;5083856;28;20027;-73
2022/01/19 13:17:48;;;;;;;24.23;13.18;;;;;;;;;;5089790;28;20425;-73
2022/01/19 13:20:15;;;;;;;23.23;11.40;;;;;;;;;;5086605;28;20063;-73
2022/01/19 13:22:45;;;;;;;22.25;9.40;;;;;;;;;;5089787;28;20146;-73
2022/01/19 13:25:22;;;;;;;25.27;9.63;;;;;;;;;;5085113;28;20051;-73
2022/01/19 13:27:48;;;;;;;28.98;9.68;;;;;;;;;;5078808;28;20040;-73
2022/01/19 13:30:15;;;;;;;23.58;11.73;;;;;;;;;;5088926;28;20110;-73
2022/01/19 13:32:42;;;;;;;26.70;12.07;;;;;;;;;;5085827;28;20032;-72
2022/01/19 13:35:10;;;;;;;36.38;16.60;;;;;;;;;;5089862;28;20028;-73
2022/01/19 13:37:37;;;;;;;34.75;16.88;;;;;;;;;;5085964;28;20148;-73
2022/01/19 13:40:06;;;;;;;35.55;17.00;;;;;;;;;;5089199;28;20742;-73
2022/01/19 13:42:36;;;;;;;36.38;16.58;;;;;;;;;;5090012;28;20028;-73
2022/01/19 13:45:09;;;;;;;30.35;15.13;;;;;;;;;;5089553;28;20028;-73
2022/01/19 13:47:52;;;;;;;28.00;13.70;;;;;;;;;;5089848;28;20355;-73
2022/01/19 13:50:19;;;;;;;26.50;14.32;;;;;;;;;;5089028;28;20048;-73
2022/01/19 13:52:45;;;;;;;22.80;13.27;;;;;;;;;;5085312;28;20044;-73
2022/01/19 13:55:18;;;;;;;30.13;13.95;;;;;;;;;;5084535;28;20036;-73
2022/01/19 13:57:44;;;;;;;27.85;15.45;;;;;;;;;;5089278;28;20028;-73
2022/01/19 14:00:11;;;;;;;31.60;16.05;;;;;;;;;;5080769;28;20055;-73
2022/01/19 14:02:37;;;;;;;26.95;16.73;;;;;;;;;;5089204;28;20063;-73
2022/01/19 14:05:04;;;;;;;27.67;17.33;;;;;;;;;;5082944;28;20035;-73
2022/01/19 14:07:30;;;;;;;29.08;15.98;;;;;;;;;;5087398;28;20036;-73
2022/01/19 14:10:09;;;;;;;24.88;15.82;;;;;;;;;;5087180;28;20059;-73
2022/01/19 14:12:35;;;;;;;42.08;20.50;;;;;;;;;;5088904;28;20806;-73
2022/01/19 14:15:02;;;;;;;44.55;23.95;;;;;;;;;;5087205;28;20035;-73
2022/01/19 14:17:28;;;;;;;45.22;28.65;;;;;;;;;;5082149;28;20029;-73
2022/01/19 14:19:55;;;;;;;39.38;22.83;;;;;;;;;;5086551;28;20455;-73
2022/01/19 14:22:20;;;;;;;37.45;22.30;;;;;;;;;;5088189;28;20576;-73
2022/01/19 14:24:47;;;;;;;50.03;28.95;;;;;;;;;;5082759;28;20110;-73
2022/01/19 14:27:25;;;;;;;44.50;26.88;;;;;;;;;;5077798;28;20036;-73
2022/01/19 14:30:09;;;;;;;42.83;23.63;;;;;;;;;;5086768;28;20042;-73
2022/01/19 14:32:35;;;;;;;43.33;22.92;;;;;;;;;;5084325;28;20047;-73
2022/01/19 14:35:02;;;;;;;42.95;22.00;;;;;;;;;;5080049;28;20071;-73
2022/01/19 14:37:28;;;;;;;43.08;22.73;;;;;;;;;;5084894;28;20028;-73
2022/01/19 14:39:54;;;;;;;42.38;23.45;;;;;;;;;;5083140;28;20024;-73
2022/01/19 14:42:23;;;;;;;42.47;23.20;;;;;;;;;;5083697;28;20140;-73
2022/01/19 14:45:01;;;;;;;38.88;21.25;;;;;;;;;;5075471;28;20072;-73
2022/01/19 14:47:35;;;;;;;31.52;18.50;;;;;;;;;;5075204;28;20033;-73
2022/01/19 14:50:15;;;;;;;25.70;15.60;;;;;;;;;;5070476;28;20043;-73
2022/01/19 14:52:41;;;;;;;22.77;13.80;;;;;;;;;;5080820;28;20067;-73
2022/01/19 14:55:08;;;;;;;23.10;13.70;;;;;;;;;;5081934;28;20067;-73
2022/01/19 14:57:34;;;;;;;22.75;10.82;;;;;;;;;;5086349;28;20414;-73
2022/01/19 15:00:02;;;;;;;22.50;10.30;;;;;;;;;;5088726;28;20042;-73
2022/01/19 15:02:29;;;;;;;24.83;9.98;;;;;;;;;;5076115;28;20082;-73
2022/01/19 15:04:55;;;;;;;17.58;8.32;;;;;;;;;;5078939;28;20036;-73
2022/01/19 15:07:21;;;;;;;14.38;8.63;;;;;;;;;;5085408;28;20040;-75
2022/01/19 15:09:47;;;;;;;21.52;10.00;;;;;;;;;;5087713;28;20100;-73
2022/01/19 15:12:13;;;;;;;23.77;13.57;;;;;;;;;;5083129;28;20065;-73
2022/01/19 15:14:40;;;;;;;24.10;13.32;;;;;;;;;;5082747;28;20138;-73
2022/01/19 15:17:08;;;;;;;22.35;11.48;;;;;;;;;;5083594;28;20025;-73
2022/01/19 15:19:35;;;;;;;33.88;17.85;;;;;;;;;;5087467;28;20024;-73
2022/01/19 15:22:01;;;;;;;24.15;12.75;;;;;;;;;;5088358;28;20241;-73
2022/01/19 15:24:27;;;;;;;20.20;10.90;;;;;;;;;;5087548;28;20058;-73
2022/01/19 15:26:53;;;;;;;21.85;11.20;;;;;;;;;;5079050;28;20510;-73
2022/01/19 15:29:19;;;;;;;22.33;12.48;;;;;;;;;;5091573;28;20032;-73
2022/01/19 15:31:48;;;;;;;24.10;13.23;;;;;;;;;;5092179;28;20036;-73
2022/01/19 15:34:14;;;;;;;23.20;12.45;;;;;;;;;;5085668;28;20099;-73
2022/01/19 15:36:40;;;;;;;26.50;14.55;;;;;;;;;;5082306;28;20474;-73
2022/01/19 15:39:08;;;;;;;32.50;13.93;;;;;;;;;;5090722;28;20049;-73
2022/01/19 15:41:36;;;;;;;26.05;14.40;;;;;;;;;;5081887;28;20020;-73
2022/01/19 15:44:02;;;;;;;22.55;13.38;;;;;;;;;;5090796;28;20105;-73
2022/01/19 15:46:28;;;;;;;21.80;13.32;;;;;;;;;;5087831;28;20043;-73